Time;durP1;ratioP1;P1;durP2;ratioP2;P2;SDS_P1;SDS_P2;PMS_P1;PMS_P2;Temp;Humidity;BMP_temperature;BMP_pressure;BME280_temperature;BME280_humidity;BME280_pressure;Samples;Min_cycle;Max_cycle;Signal;HPM_P1;HPM_P2
2021/07/07 00:01:25;;;;;;;10.00;3.53;;;14.20;96.20;;;;;;4950719;28;20062;-76
2021/07/07 00:03:52;;;;;;;10.27;3.03;;;14.20;96.30;;;;;;4973558;28;20041;-76
2021/07/07 00:06:18;;;;;;;8.23;3.30;;;14.10;96.30;;;;;;4985483;28;20287;-76
2021/07/07 00:08:44;;;;;;;6.15;2.80;;;14.10;96.30;;;;;;4967718;28;20094;-76
2021/07/07 00:11:10;;;;;;;9.13;3.03;;;14.10;96.40;;;;;;4954001;28;20173;-76
2021/07/07 00:13:36;;;;;;;7.60;3.20;;;14.10;96.50;;;;;;4948760;28;20042;-74
2021/07/07 00:16:04;;;;;;;12.18;4.18;;;14.00;96.50;;;;;;4965348;28;20042;-75
2021/07/07 00:18:30;;;;;;;9.70;3.28;;;14.00;96.50;;;;;;4990767;28;20054;-76
2021/07/07 00:20:57;;;;;;;8.75;3.00;;;14.00;96.60;;;;;;4958978;28;20756;-76
2021/07/07 00:23:27;;;;;;;7.75;3.08;;;13.90;96.60;;;;;;4988398;28;20038;-75
2021/07/07 00:25:54;;;;;;;7.82;3.10;;;13.90;96.70;;;;;;5007540;28;20550;-76
2021/07/07 00:28:21;;;;;;;6.18;3.17;;;13.90;96.70;;;;;;4989629;28;20056;-77
2021/07/07 00:30:51;;;;;;;7.72;3.30;;;13.90;96.80;;;;;;4991313;28;20038;-76
2021/07/07 00:33:21;;;;;;;;;;;13.80;96.80;;;;;;4990204;28;20056;-77
2021/07/07 00:35:47;;;;;;;8.13;3.67;;;13.80;97.20;;;;;;4992651;28;20432;-76
2021/07/07 00:38:14;;;;;;;7.63;3.10;;;13.70;96.80;;;;;;4973399;28;21150;-77
2021/07/07 00:40:41;;;;;;;8.55;3.20;;;13.70;96.80;;;;;;4987889;28;20073;-76
2021/07/07 00:43:07;;;;;;;8.48;3.83;;;13.80;96.80;;;;;;4993434;28;20030;-76
2021/07/07 00:45:33;;;;;;;5.38;3.42;;;13.70;96.50;;;;;;4987218;28;20050;-76
2021/07/07 00:47:59;;;;;;;9.50;3.35;;;13.80;96.90;;;;;;4996023;28;20560;-77
2021/07/07 00:50:25;;;;;;;9.90;3.33;;;13.70;96.80;;;;;;4978221;28;20042;-76
2021/07/07 00:52:54;;;;;;;7.00;2.97;;;13.80;96.90;;;;;;4974008;28;20049;-74
2021/07/07 00:55:20;;;;;;;7.15;3.28;;;13.70;97.00;;;;;;4960215;28;20038;-74
2021/07/07 00:57:46;;;;;;;7.20;3.65;;;13.70;97.00;;;;;;4959196;28;20050;-75
2021/07/07 01:00:25;;;;;;;6.80;3.40;;;13.60;97.20;;;;;;4977909;28;22012;-76
2021/07/07 01:02:55;;;;;;;6.88;3.30;;;13.70;97.40;;;;;;4928399;28;20042;-75
2021/07/07 01:05:21;;;;;;;6.78;3.63;;;13.60;97.40;;;;;;4975925;28;20045;-75
2021/07/07 01:07:48;;;;;;;8.20;3.42;;;13.60;97.60;;;;;;4957292;28;20038;-75
2021/07/07 01:10:15;;;;;;;7.20;3.65;;;13.50;97.60;;;;;;4973047;28;20052;-75
2021/07/07 01:12:41;;;;;;;8.60;4.50;;;13.60;97.80;;;;;;4962307;28;20046;-75
2021/07/07 01:15:11;;;;;;;7.40;4.10;;;13.60;98.20;;;;;;4972285;28;20435;-75
2021/07/07 01:17:40;;;;;;;15.30;4.30;;;13.60;98.00;;;;;;4962827;28;20046;-75
2021/07/07 01:20:12;;;;;;;9.88;4.22;;;13.60;98.10;;;;;;4977951;28;20477;-76
2021/07/07 01:22:39;;;;;;;9.23;4.60;;;13.60;98.20;;;;;;4962175;28;20066;-76
2021/07/07 01:25:08;;;;;;;7.65;4.20;;;13.60;98.20;;;;;;4961562;28;20034;-76
2021/07/07 01:27:35;;;;;;;9.20;4.75;;;13.60;98.20;;;;;;4948589;28;20049;-75
2021/07/07 01:30:12;;;;;;;8.63;4.63;;;13.60;98.30;;;;;;4947410;28;20038;-75
2021/07/07 01:32:38;;;;;;;11.02;5.03;;;13.60;98.50;;;;;;4981242;28;20169;-75
2021/07/07 01:35:05;;;;;;;7.97;4.70;;;13.60;98.60;;;;;;4965745;28;20125;-75
2021/07/07 01:37:31;;;;;;;8.98;4.38;;;13.60;98.60;;;;;;4965557;28;20039;-75
2021/07/07 01:39:57;;;;;;;8.38;5.03;;;13.60;98.70;;;;;;4947434;28;20401;-75
2021/07/07 01:42:23;;;;;;;8.85;4.43;;;13.60;98.70;;;;;;4962304;28;20093;-76
2021/07/07 01:44:49;;;;;;;8.80;5.00;;;13.70;98.80;;;;;;4965378;28;20937;-76
2021/07/07 01:47:15;;;;;;;9.60;5.25;;;13.70;98.90;;;;;;4965003;28;20046;-75
2021/07/07 01:49:41;;;;;;;7.65;4.18;;;13.70;98.90;;;;;;4981084;28;20057;-75
2021/07/07 01:52:07;;;;;;;8.57;4.57;;;13.70;98.90;;;;;;4964868;28;20038;-75
2021/07/07 01:54:33;;;;;;;8.00;4.50;;;13.70;98.90;;;;;;4983212;28;20046;-75
2021/07/07 01:56:59;;;;;;;11.82;5.15;;;13.70;98.90;;;;;;4963512;28;20038;-76
2021/07/07 01:59:25;;;;;;;10.63;4.85;;;13.80;98.90;;;;;;4947825;28;20454;-76
2021/07/07 02:01:51;;;;;;;10.05;4.88;;;13.70;98.90;;;;;;4972000;28;20122;-75
2021/07/07 02:04:17;;;;;;;9.18;4.18;;;13.70;98.90;;;;;;4971882;28;20061;-76
2021/07/07 02:06:43;;;;;;;13.27;4.50;;;13.70;98.90;;;;;;4971767;28;20049;-75
2021/07/07 02:09:09;;;;;;;8.77;4.65;;;13.70;99.00;;;;;;4956141;28;20042;-76
2021/07/07 02:11:35;;;;;;;7.00;4.55;;;13.70;98.90;;;;;;4954343;28;20374;-76
2021/07/07 02:14:02;;;;;;;8.45;3.83;;;13.70;99.00;;;;;;4954266;28;20043;-76
2021/07/07 02:16:28;;;;;;;8.10;4.70;;;13.70;99.00;;;;;;4956914;28;20069;-77
2021/07/07 02:18:54;;;;;;;9.40;4.63;;;13.70;99.20;;;;;;4972763;28;20473;-76
2021/07/07 02:21:20;;;;;;;11.88;4.07;;;13.60;99.10;;;;;;4969691;28;20034;-76
2021/07/07 02:23:46;;;;;;;7.05;4.40;;;13.60;99.20;;;;;;4952594;28;20040;-75
2021/07/07 02:26:12;;;;;;;8.93;4.97;;;13.60;99.20;;;;;;4989721;28;20058;-76
2021/07/07 02:28:38;;;;;;;6.80;4.78;;;13.60;99.30;;;;;;4958746;28;20089;-76
2021/07/07 02:31:07;;;;;;;11.50;4.97;;;13.60;99.30;;;;;;4970305;28;20060;-76
2021/07/07 02:33:33;;;;;;;7.18;4.68;;;13.60;99.40;;;;;;4972196;28;20034;-77
2021/07/07 02:35:59;;;;;;;8.60;5.35;;;13.50;99.50;;;;;;4952046;28;20125;-76
2021/07/07 02:38:25;;;;;;;9.45;5.53;;;13.50;99.50;;;;;;4990433;28;20045;-76
2021/07/07 02:40:54;;;;;;;8.43;5.50;;;13.50;99.50;;;;;;4952290;28;20084;-74
2021/07/07 02:43:19;;;;;;;8.30;4.90;;;13.50;99.50;;;;;;4986510;28;20034;-76
2021/07/07 02:45:46;;;;;;;7.85;4.85;;;13.50;99.60;;;;;;4965560;28;20540;-75
2021/07/07 02:48:13;;;;;;;7.70;5.43;;;13.50;99.70;;;;;;4961476;28;20429;-76
2021/07/07 02:50:41;;;;;;;9.55;5.38;;;13.50;99.70;;;;;;4987733;28;20052;-75
2021/07/07 02:53:15;;;;;;;7.55;4.72;;;13.50;99.70;;;;;;4986038;28;20046;-76
2021/07/07 02:55:41;;;;;;;8.30;5.35;;;13.50;99.80;;;;;;5005993;28;20045;-76
2021/07/07 02:58:07;;;;;;;9.10;5.35;;;13.40;99.80;;;;;;5004590;28;20038;-76
2021/07/07 03:00:41;;;;;;;10.27;5.15;;;13.50;99.90;;;;;;4970528;28;20033;-76
2021/07/07 03:03:09;;;;;;;6.40;4.15;;;13.50;99.90;;;;;;4986554;28;20038;-75
2021/07/07 03:05:39;;;;;;;9.75;4.80;;;13.50;99.90;;;;;;4988302;28;20040;-74
2021/07/07 03:08:09;;;;;;;7.65;4.47;;;13.40;99.80;;;;;;4990316;28;20510;-76
2021/07/07 03:10:36;;;;;;;7.90;4.95;;;13.50;99.80;;;;;;4974262;28;20042;-76
2021/07/07 03:13:02;;;;;;;6.90;4.70;;;13.50;99.80;;;;;;5003943;28;20061;-77
2021/07/07 03:15:31;;;;;;;7.63;4.80;;;13.40;99.80;;;;;;4985440;28;20042;-76
2021/07/07 03:17:57;;;;;;;9.25;4.43;;;13.50;99.70;;;;;;5004969;28;20038;-74
2021/07/07 03:20:23;;;;;;;6.80;4.07;;;13.40;99.70;;;;;;4983809;28;20558;-75
2021/07/07 03:22:50;;;;;;;8.68;4.05;;;13.40;99.70;;;;;;4969797;28;20052;-76
2021/07/07 03:25:16;;;;;;;6.40;4.30;;;13.40;99.80;;;;;;4986474;28;20052;-76
2021/07/07 03:27:42;;;;;;;5.53;3.92;;;13.40;99.70;;;;;;4971035;28;20046;-76
2021/07/07 03:30:09;;;;;;;8.65;4.65;;;13.50;99.60;;;;;;4970248;28;20050;-74
2021/07/07 03:32:35;;;;;;;7.43;4.25;;;13.50;99.60;;;;;;5003943;28;20033;-76
2021/07/07 03:35:09;;;;;;;10.63;3.78;;;13.40;99.60;;;;;;5000275;28;20038;-76
2021/07/07 03:37:35;;;;;;;6.93;3.90;;;13.40;99.60;;;;;;4989310;28;20034;-75
2021/07/07 03:40:03;;;;;;;7.72;4.30;;;13.40;99.50;;;;;;4998112;28;20044;-76
2021/07/07 03:42:29;;;;;;;7.45;3.88;;;13.40;99.50;;;;;;4985388;28;20041;-76
2021/07/07 03:44:55;;;;;;;10.07;4.18;;;13.40;99.60;;;;;;4985860;28;20508;-75
2021/07/07 03:47:21;;;;;;;7.63;4.00;;;13.40;99.60;;;;;;4969896;28;20503;-74
2021/07/07 03:49:46;;;;;;;7.57;3.85;;;13.40;99.70;;;;;;4998831;28;20053;-75
2021/07/07 03:52:13;;;;;;;6.45;4.30;;;13.40;99.70;;;;;;4971525;28;20043;-78
2021/07/07 03:54:39;;;;;;;8.65;4.47;;;13.40;99.70;;;;;;4969051;28;20049;-79
2021/07/07 03:57:05;;;;;;;8.63;4.80;;;13.40;99.70;;;;;;4967266;28;20061;-79
2021/07/07 03:59:31;;;;;;;8.15;4.82;;;13.40;99.60;;;;;;4962741;28;20042;-76
2021/07/07 04:01:56;;;;;;;10.75;4.80;;;13.40;99.70;;;;;;4952516;28;20504;-75
2021/07/07 04:04:22;;;;;;;7.30;4.78;;;13.40;99.70;;;;;;4943578;28;20043;-76
2021/07/07 04:06:48;;;;;;;10.23;4.85;;;13.40;99.80;;;;;;4987503;28;20389;-76
2021/07/07 04:09:15;;;;;;;8.77;5.75;;;13.40;99.80;;;;;;4969438;28;20512;-76
2021/07/07 04:11:41;;;;;;;7.82;4.63;;;13.50;99.80;;;;;;4953956;28;20086;-76
2021/07/07 04:14:10;;;;;;;10.30;5.55;;;13.50;99.80;;;;;;4937445;28;20633;-76
2021/07/07 04:16:36;;;;;;;8.98;5.70;;;13.50;99.90;;;;;;4948440;28;20138;-74
2021/07/07 04:19:03;;;;;;;9.55;5.15;;;13.50;99.90;;;;;;4967243;28;20306;-76
2021/07/07 04:21:29;;;;;;;6.82;4.63;;;13.50;99.90;;;;;;4970712;28;20039;-75
2021/07/07 04:23:55;;;;;;;10.82;5.53;;;13.50;99.90;;;;;;4985916;28;20044;-75
2021/07/07 04:26:21;;;;;;;8.55;5.65;;;13.50;99.90;;;;;;4955173;28;20478;-76
2021/07/07 04:28:47;;;;;;;9.02;6.15;;;13.60;99.90;;;;;;4933479;28;20471;-76
2021/07/07 04:31:14;;;;;;;9.18;5.72;;;13.60;99.90;;;;;;4983671;28;20049;-75
2021/07/07 04:33:41;;;;;;;9.55;6.15;;;13.70;99.90;;;;;;4954161;28;20058;-76
2021/07/07 04:36:07;;;;;;;10.23;6.13;;;13.70;99.90;;;;;;4959714;28;20118;-77
2021/07/07 04:38:33;;;;;;;11.40;6.47;;;13.70;99.90;;;;;;4986405;28;20054;-76
2021/07/07 04:40:59;;;;;;;7.82;5.47;;;13.80;99.90;;;;;;4967778;28;20053;-77
2021/07/07 04:43:25;;;;;;;8.35;5.80;;;13.80;99.90;;;;;;4968535;28;20113;-76
2021/07/07 04:45:51;;;;;;;7.60;5.90;;;13.80;99.90;;;;;;4969035;28;20134;-76
2021/07/07 04:48:17;;;;;;;11.02;6.75;;;13.90;99.90;;;;;;4954350;28;20070;-76
2021/07/07 04:50:43;;;;;;;8.02;6.40;;;13.90;99.90;;;;;;4939681;28;20148;-75
2021/07/07 04:53:12;;;;;;;9.93;6.55;;;14.00;99.90;;;;;;4986550;28;20039;-76
2021/07/07 04:55:38;;;;;;;9.88;6.50;;;14.00;99.90;;;;;;4970795;28;20445;-75
2021/07/07 04:58:04;;;;;;;10.02;6.45;;;14.10;99.90;;;;;;4968868;28;20031;-76
2021/07/07 05:00:31;;;;;;;7.82;6.25;;;14.10;99.90;;;;;;4949895;28;20035;-76
2021/07/07 05:02:57;;;;;;;8.98;6.43;;;14.20;99.90;;;;;;4952293;28;20137;-75
2021/07/07 05:05:23;;;;;;;8.23;6.78;;;14.20;99.90;;;;;;4972522;28;20122;-74
2021/07/07 05:07:50;;;;;;;10.10;6.68;;;14.30;99.90;;;;;;4949596;28;20054;-77
2021/07/07 05:10:17;;;;;;;10.02;6.50;;;14.40;99.90;;;;;;4968256;28;20038;-76
2021/07/07 05:12:43;;;;;;;11.07;6.57;;;14.40;99.90;;;;;;4985436;28;20401;-75
2021/07/07 05:15:12;;;;;;;9.80;7.15;;;14.50;99.90;;;;;;4983733;28;20061;-76
2021/07/07 05:17:38;;;;;;;11.80;6.50;;;14.50;99.90;;;;;;4985181;28;20045;-76
2021/07/07 05:20:07;;;;;;;9.30;6.63;;;14.60;99.90;;;;;;4988068;28;20061;-75
2021/07/07 05:22:33;;;;;;;9.68;6.75;;;14.60;99.80;;;;;;4967120;28;20046;-75
2021/07/07 05:24:59;;;;;;;10.25;7.25;;;14.70;99.70;;;;;;4969079;28;20043;-75
2021/07/07 05:27:25;;;;;;;7.85;6.32;;;14.80;99.80;;;;;;4970995;28;20497;-76
2021/07/07 05:29:51;;;;;;;9.63;6.70;;;14.90;99.70;;;;;;4971527;28;20042;-76
2021/07/07 05:32:22;;;;;;;8.38;6.60;;;14.90;99.70;;;;;;4971572;28;20544;-76
2021/07/07 05:34:53;;;;;;;8.75;5.50;;;15.00;99.60;;;;;;4971438;28;20085;-75
2021/07/07 05:37:22;;;;;;;10.48;6.22;;;15.10;99.50;;;;;;4971764;28;20108;-76
2021/07/07 05:39:50;;;;;;;8.18;6.20;;;15.10;99.30;;;;;;4985797;28;20045;-76
2021/07/07 05:42:19;;;;;;;10.18;6.30;;;15.20;99.40;;;;;;4956460;28;20146;-76
2021/07/07 05:44:48;;;;;;;9.83;5.70;;;15.30;99.20;;;;;;4987069;28;20493;-77
2021/07/07 05:47:15;;;;;;;10.25;5.35;;;15.30;99.10;;;;;;4985229;28;20305;-80
2021/07/07 05:49:42;;;;;;;6.32;5.35;;;15.40;99.10;;;;;;4971548;28;20035;-80
2021/07/07 05:52:08;;;;;;;9.18;5.55;;;15.50;98.80;;;;;;4969251;28;20061;-81
2021/07/07 05:54:34;;;;;;;6.35;4.68;;;15.60;99.00;;;;;;4951017;28;20231;-80
2021/07/07 05:57:00;;;;;;;8.40;4.80;;;15.80;99.00;;;;;;4950357;28;20524;-81
2021/07/07 05:59:26;;;;;;;7.55;5.13;;;15.90;98.70;;;;;;4965506;28;20112;-81
2021/07/07 06:01:52;;;;;;;7.68;4.85;;;15.90;98.60;;;;;;4951984;28;20038;-81
2021/07/07 06:04:18;;;;;;;8.55;5.10;;;16.00;98.50;;;;;;4936874;28;20043;-82
2021/07/07 06:06:44;;;;;;;7.55;4.30;;;16.00;98.50;;;;;;4946473;28;20062;-80
2021/07/07 06:09:10;;;;;;;10.43;4.63;;;16.10;98.50;;;;;;4952481;28;20135;-80
2021/07/07 06:11:42;;;;;;;6.38;4.50;;;16.00;98.40;;;;;;4989222;28;20039;-86
2021/07/07 06:14:08;;;;;;;9.10;4.43;;;16.10;98.30;;;;;;4952929;28;20410;-83
2021/07/07 06:16:34;;;;;;;7.22;3.83;;;16.10;98.10;;;;;;4937405;28;20042;-85
2021/07/07 06:19:00;;;;;;;8.18;4.50;;;16.10;98.10;;;;;;4988837;28;20474;-86
2021/07/07 06:21:26;;;;;;;8.75;4.53;;;16.20;98.20;;;;;;4971443;28;20035;-85
2021/07/07 06:23:52;;;;;;;6.60;4.78;;;16.20;98.20;;;;;;4921932;28;20047;-85
2021/07/07 06:26:19;;;;;;;9.85;4.97;;;16.20;98.20;;;;;;4950931;28;20129;-84
2021/07/07 06:28:45;;;;;;;9.00;4.40;;;16.20;98.10;;;;;;4968681;28;20038;-86
2021/07/07 06:31:11;;;;;;;7.45;4.70;;;16.20;98.20;;;;;;4945359;28;20042;-84
2021/07/07 06:33:37;;;;;;;7.20;4.75;;;16.30;98.30;;;;;;4933814;28;20039;-85
2021/07/07 06:36:03;;;;;;;8.50;5.03;;;16.30;98.30;;;;;;4953176;28;20409;-85
2021/07/07 06:38:31;;;;;;;7.72;4.80;;;16.40;98.40;;;;;;4976989;28;20121;-85
2021/07/07 06:40:59;;;;;;;7.57;4.43;;;16.40;98.50;;;;;;4937435;28;20152;-84
2021/07/07 06:43:26;;;;;;;8.88;5.25;;;16.50;98.30;;;;;;4982232;28;20532;-83
2021/07/07 06:45:52;;;;;;;7.97;5.00;;;16.60;98.30;;;;;;4987411;28;20046;-83
2021/07/07 06:48:17;;;;;;;9.43;5.05;;;16.70;98.20;;;;;;4951794;28;20073;-85
2021/07/07 06:50:45;;;;;;;9.45;4.80;;;16.70;98.10;;;;;;4988129;28;20502;-87
2021/07/07 06:53:11;;;;;;;8.82;4.35;;;16.80;98.20;;;;;;4970679;28;20076;-84
2021/07/07 06:55:37;;;;;;;8.82;4.20;;;16.90;98.00;;;;;;5000315;28;20073;-84
2021/07/07 06:58:06;;;;;;;9.07;4.82;;;17.00;97.70;;;;;;5001746;28;20537;-84
2021/07/07 07:00:34;;;;;;;8.38;4.40;;;17.10;97.20;;;;;;5005562;28;20181;-84
2021/07/07 07:03:00;;;;;;;8.15;4.25;;;17.10;97.10;;;;;;4975120;28;20167;-83
2021/07/07 07:05:26;;;;;;;8.82;4.28;;;17.20;97.20;;;;;;4996826;28;20291;-86
2021/07/07 07:07:52;;;;;;;10.82;4.80;;;17.30;96.90;;;;;;4971864;28;20045;-85
2021/07/07 07:10:18;;;;;;;8.38;4.22;;;17.30;96.90;;;;;;5006551;28;20569;-87
2021/07/07 07:12:44;;;;;;;9.73;4.70;;;17.40;96.70;;;;;;4969883;28;20323;-87
2021/07/07 07:15:13;;;;;;;10.50;4.82;;;17.50;96.60;;;;;;4972737;28;20050;-84
2021/07/07 07:17:39;;;;;;;9.52;4.20;;;17.50;96.50;;;;;;5006150;28;20064;-87
2021/07/07 07:20:08;;;;;;;8.45;3.78;;;17.60;96.30;;;;;;5006128;28;20034;-84
2021/07/07 07:22:35;;;;;;;11.80;4.40;;;17.80;96.20;;;;;;5003648;28;20062;-85
2021/07/07 07:25:07;;;;;;;7.22;3.88;;;17.90;95.80;;;;;;5004901;28;20084;-85
2021/07/07 07:27:34;;;;;;;7.82;4.32;;;17.90;95.50;;;;;;4974639;28;20046;-84
2021/07/07 07:30:00;;;;;;;9.35;3.97;;;18.00;95.30;;;;;;5002998;28;20064;-85
2021/07/07 07:32:29;;;;;;;8.98;4.13;;;18.00;95.50;;;;;;5007639;28;20121;-84
2021/07/07 07:34:55;;;;;;;11.05;4.28;;;18.10;95.60;;;;;;5001977;28;20045;-85
2021/07/07 07:37:25;;;;;;;7.60;3.92;;;18.20;95.70;;;;;;5015470;28;20030;-84
2021/07/07 07:39:56;;;;;;;7.50;4.63;;;18.30;95.40;;;;;;4970243;28;20054;-83
2021/07/07 07:42:22;;;;;;;8.80;3.95;;;18.30;95.50;;;;;;4997716;28;20064;-85
2021/07/07 07:44:49;;;;;;;9.32;4.22;;;18.40;94.80;;;;;;4992785;28;20802;-82
2021/07/07 07:47:16;;;;;;;8.13;3.78;;;18.50;94.90;;;;;;5003696;28;20141;-85
2021/07/07 07:49:42;;;;;;;8.30;3.70;;;18.50;94.90;;;;;;4999360;28;20042;-84
2021/07/07 07:52:08;;;;;;;7.15;3.80;;;18.60;94.90;;;;;;5006804;28;20112;-84
2021/07/07 07:54:34;;;;;;;8.45;3.70;;;18.60;95.00;;;;;;5006033;28;20042;-87
2021/07/07 07:57:01;;;;;;;7.50;3.88;;;18.70;94.80;;;;;;5011182;28;20401;-85
2021/07/07 07:59:27;;;;;;;7.63;3.40;;;18.70;94.80;;;;;;5014184;28;20516;-86
2021/07/07 08:01:53;;;;;;;8.02;3.38;;;18.70;94.60;;;;;;5002594;28;20617;-86
2021/07/07 08:04:19;;;;;;;8.23;3.65;;;18.70;94.50;;;;;;4986696;28;20133;-86
2021/07/07 08:06:46;;;;;;;8.55;4.10;;;18.70;94.40;;;;;;4989989;28;20136;-86
2021/07/07 08:09:13;;;;;;;8.45;3.75;;;18.70;94.50;;;;;;5006395;28;20056;-84
2021/07/07 08:11:40;;;;;;;6.47;3.13;;;18.70;94.60;;;;;;4990190;28;20084;-84
2021/07/07 08:14:09;;;;;;;8.02;3.38;;;18.80;94.80;;;;;;5002417;28;20116;-83
2021/07/07 08:16:35;;;;;;;8.50;4.03;;;18.80;94.80;;;;;;4959340;28;20054;-83
2021/07/07 08:19:01;;;;;;;9.38;3.88;;;18.90;94.60;;;;;;4972998;28;20129;-85
2021/07/07 08:21:28;;;;;;;7.93;3.65;;;19.00;94.00;;;;;;5005299;28;20042;-85
2021/07/07 08:23:54;;;;;;;8.25;3.72;;;19.00;94.10;;;;;;4988612;28;20042;-86
2021/07/07 08:26:20;;;;;;;7.20;4.05;;;19.00;94.30;;;;;;4986854;28;20038;-84
2021/07/07 08:28:46;;;;;;;7.38;3.40;;;19.10;94.60;;;;;;4996232;28;20034;-86
2021/07/07 08:31:21;;;;;;;7.50;4.00;;;19.30;94.40;;;;;;4985409;28;20042;-85
2021/07/07 08:33:47;;;;;;;10.77;4.50;;;19.30;94.00;;;;;;4988871;28;20046;-87
2021/07/07 08:36:19;;;;;;;8.30;3.53;;;19.50;93.90;;;;;;5000017;28;20040;-85
2021/07/07 08:38:45;;;;;;;11.15;4.53;;;19.60;93.80;;;;;;4972258;28;20522;-86
2021/07/07 08:41:11;;;;;;;9.18;4.93;;;19.70;93.60;;;;;;5002970;28;20077;-84
2021/07/07 08:43:37;;;;;;;9.18;4.38;;;19.80;93.10;;;;;;5004581;28;20038;-86
2021/07/07 08:46:03;;;;;;;9.75;4.72;;;20.00;93.60;;;;;;4971101;28;20050;-83
2021/07/07 08:48:29;;;;;;;11.02;4.45;;;20.30;92.70;;;;;;5005256;28;20072;-84
2021/07/07 08:50:59;;;;;;;9.65;4.55;;;20.40;91.60;;;;;;5003964;28;20537;-85
2021/07/07 08:53:26;;;;;;;9.07;4.38;;;20.50;91.60;;;;;;5006459;28;20045;-84
2021/07/07 08:55:54;;;;;;;11.60;4.50;;;20.50;91.30;;;;;;4979365;28;20046;-83
2021/07/07 08:58:21;;;;;;;7.68;3.80;;;20.60;91.70;;;;;;4997877;28;20731;-83
2021/07/07 09:00:50;;;;;;;7.63;3.53;;;20.70;91.70;;;;;;4998606;28;20042;-83
2021/07/07 09:03:18;;;;;;;7.53;4.63;;;20.80;91.10;;;;;;4989927;28;20056;-83
2021/07/07 09:05:54;;;;;;;7.68;4.45;;;20.90;91.40;;;;;;4993936;28;20069;-81
2021/07/07 09:08:26;;;;;;;11.77;4.53;;;20.90;89.60;;;;;;5010759;28;20046;-82
2021/07/07 09:10:54;;;;;;;9.88;4.28;;;20.80;90.00;;;;;;5005770;28;20404;-85
2021/07/07 09:13:22;;;;;;;8.68;3.65;;;20.90;90.00;;;;;;4995429;28;20500;-84
2021/07/07 09:15:51;;;;;;;9.43;4.25;;;21.00;90.20;;;;;;5005977;28;20069;-81
2021/07/07 09:18:33;;;;;;;7.18;3.97;;;21.10;89.20;;;;;;5011451;28;20518;-82
2021/07/07 09:21:02;;;;;;;10.68;4.35;;;21.20;89.20;;;;;;4994152;28;20042;-83
2021/07/07 09:23:30;;;;;;;12.73;5.00;;;21.40;90.00;;;;;;5007124;28;20096;-82
2021/07/07 09:26:05;;;;;;;10.00;4.28;;;21.50;90.30;;;;;;5008981;28;20042;-81
2021/07/07 09:28:35;;;;;;;8.25;3.85;;;21.70;87.60;;;;;;5007983;28;20056;-82
2021/07/07 09:31:07;;;;;;;7.43;3.60;;;21.80;88.50;;;;;;5004976;28;20073;-82
2021/07/07 09:34:08;;;;;;;10.40;3.35;;;22.00;88.10;;;;;;5012414;28;20049;-83
2021/07/07 09:36:39;;;;;;;9.45;3.35;;;22.10;87.10;;;;;;4982130;28;20045;-83
2021/07/07 09:39:18;;;;;;;8.35;3.30;;;22.20;85.40;;;;;;5004935;28;20052;-84
2021/07/07 09:41:49;;;;;;;6.22;2.95;;;22.30;86.60;;;;;;5007990;28;20042;-84
2021/07/07 09:44:35;;;;;;;6.30;3.03;;;22.40;82.80;;;;;;4981046;28;20054;-85
2021/07/07 09:47:09;;;;;;;6.93;3.13;;;22.50;83.60;;;;;;5004742;28;20045;-83
2021/07/07 09:49:35;;;;;;;7.50;2.88;;;22.50;84.80;;;;;;5006450;28;20049;-84
2021/07/07 09:52:23;;;;;;;7.95;3.15;;;22.40;82.20;;;;;;4982053;28;20103;-84
2021/07/07 09:54:51;;;;;;;8.07;2.95;;;22.40;81.60;;;;;;4993631;28;20049;-84
2021/07/07 09:57:18;;;;;;;7.05;3.05;;;22.40;83.10;;;;;;4986684;28;20057;-84
2021/07/07 09:59:48;;;;;;;8.18;2.55;;;22.50;80.70;;;;;;4991414;28;20046;-83
2021/07/07 10:02:15;;;;;;;6.63;3.30;;;22.50;78.10;;;;;;4988502;28;20050;-83
2021/07/07 10:05:01;;;;;;;7.32;2.45;;;22.60;80.20;;;;;;4985616;28;20041;-81
2021/07/07 10:07:49;;;;;;;7.38;2.50;;;22.70;83.40;;;;;;4996029;28;20059;-82
2021/07/07 10:10:38;;;;;;;8.30;3.00;;;22.80;84.10;;;;;;5008093;28;20037;-83
2021/07/07 10:13:05;;;;;;;8.60;3.00;;;22.80;81.70;;;;;;5004891;28;20045;-83
2021/07/07 10:15:32;;;;;;;8.48;2.80;;;22.70;80.70;;;;;;4998530;28;20034;-85
2021/07/07 10:17:59;;;;;;;5.60;2.15;;;22.80;78.60;;;;;;4980742;28;20382;-84
2021/07/07 10:20:28;;;;;;;6.80;2.78;;;22.80;78.90;;;;;;5000830;28;20054;-82
2021/07/07 10:22:56;;;;;;;10.35;2.90;;;22.70;80.10;;;;;;4997458;28;20044;-85
2021/07/07 10:25:27;;;;;;;7.07;2.97;;;22.60;80.80;;;;;;5005831;28;20080;-85
2021/07/07 10:27:56;;;;;;;11.65;2.97;;;22.60;81.00;;;;;;5021869;28;20045;-86
2021/07/07 10:30:58;;;;;;;8.23;2.85;;;22.70;80.80;;;;;;5007053;28;20030;-85
2021/07/07 10:33:29;;;;;;;5.43;2.35;;;22.90;77.70;;;;;;4991692;28;20045;-87
2021/07/07 10:36:23;;;;;;;8.57;2.60;;;23.20;78.30;;;;;;4990294;28;20096;-86
2021/07/07 10:39:00;;;;;;;5.95;2.80;;;23.50;79.90;;;;;;5001986;28;20509;-83
2021/07/07 10:41:47;;;;;;;8.10;3.15;;;23.40;74.30;;;;;;5006658;28;20094;-82
2021/07/07 10:44:22;;;;;;;7.72;2.63;;;23.10;77.10;;;;;;5012313;28;20196;-83
2021/07/07 10:46:53;;;;;;;7.05;2.35;;;22.90;75.30;;;;;;5007388;28;20065;-85
2021/07/07 10:49:43;;;;;;;8.80;2.83;;;22.80;78.60;;;;;;4986461;28;20057;-83
2021/07/07 10:52:11;;;;;;;9.85;3.22;;;22.80;77.50;;;;;;4997651;28;20417;-84
2021/07/07 10:54:40;;;;;;;5.90;2.92;;;22.90;78.30;;;;;;5008317;28;20080;-88
2021/07/07 10:57:10;;;;;;;9.75;2.83;;;23.30;77.50;;;;;;4983343;28;20054;-82
2021/07/07 10:59:41;;;;;;;8.80;2.42;;;23.60;73.60;;;;;;5003527;28;20038;-83
2021/07/07 11:02:21;;;;;;;7.03;3.22;;;23.60;74.20;;;;;;4996579;28;20411;-85
2021/07/07 11:04:47;;;;;;;;;;;23.40;73.30;;;;;;5021048;28;20046;-83
2021/07/07 11:07:34;;;;;;;7.75;2.65;;;23.10;75.30;;;;;;5002397;28;19979;-87
2021/07/07 11:10:03;;;;;;;9.30;2.92;;;22.80;77.30;;;;;;5003208;28;20055;-86
2021/07/07 11:12:49;;;;;;;7.57;2.65;;;22.70;77.50;;;;;;5006171;28;20088;-85
2021/07/07 11:15:18;;;;;;;9.10;2.83;;;22.70;73.90;;;;;;5006394;28;20046;-86
2021/07/07 11:17:50;;;;;;;8.90;2.90;;;22.70;76.00;;;;;;4990688;28;20054;-85
2021/07/07 11:20:24;;;;;;;7.93;2.63;;;22.70;74.70;;;;;;5003761;28;20050;-84
2021/07/07 11:23:02;;;;;;;7.70;2.90;;;22.50;74.90;;;;;;5006505;28;20038;-85
2021/07/07 11:25:29;;;;;;;5.65;2.47;;;22.40;76.50;;;;;;5006495;28;20515;-85
2021/07/07 11:28:00;;;;;;;9.38;3.63;;;22.20;76.90;;;;;;5006784;28;20120;-85
2021/07/07 11:30:27;;;;;;;10.57;3.28;;;22.00;80.20;;;;;;4978225;28;20104;-84
2021/07/07 11:32:56;;;;;;;8.75;3.70;;;21.60;82.40;;;;;;5006550;28;20030;-83
2021/07/07 11:35:32;;;;;;;7.93;3.58;;;21.30;86.40;;;;;;5005279;28;20042;-82
2021/07/07 11:38:04;;;;;;;9.02;3.67;;;21.10;89.90;;;;;;5008363;28;20058;-82
2021/07/07 11:40:33;;;;;;;8.60;4.10;;;21.00;90.90;;;;;;5007865;28;20076;-84
2021/07/07 11:43:10;;;;;;;8.30;4.22;;;20.90;91.70;;;;;;4991749;28;20062;-83
2021/07/07 11:45:58;;;;;;;9.70;4.10;;;20.90;92.00;;;;;;4970127;28;20670;-82
2021/07/07 11:51:00;;;;;;;9.52;3.88;;;21.10;92.40;;;;;;5001661;28;20051;-85
2021/07/07 11:53:43;;;;;;;9.48;4.05;;;21.40;92.80;;;;;;4971117;28;20125;-83
2021/07/07 11:56:14;;;;;;;8.82;3.97;;;21.60;91.50;;;;;;4963145;28;20057;-83
2021/07/07 11:58:57;;;;;;;7.20;4.13;;;21.60;90.70;;;;;;4968303;28;20142;-82
2021/07/07 12:01:33;;;;;;;9.77;3.33;;;21.50;89.70;;;;;;4966395;28;20045;-83
2021/07/07 12:04:08;;;;;;;6.95;4.10;;;21.40;90.20;;;;;;4964768;28;20054;-83
2021/07/07 12:06:37;;;;;;;8.32;4.55;;;21.30;90.50;;;;;;4951812;28;20073;-83
2021/07/07 12:09:16;;;;;;;10.65;4.28;;;21.20;90.50;;;;;;4971445;28;20038;-82
2021/07/07 12:11:54;;;;;;;8.77;4.00;;;21.00;90.90;;;;;;4963480;28;20093;-83
2021/07/07 12:14:23;;;;;;;7.75;3.50;;;21.00;90.90;;;;;;4963981;28;20125;-85
2021/07/07 12:16:49;;;;;;;8.57;3.20;;;20.90;90.50;;;;;;4970700;28;20147;-86
2021/07/07 12:19:17;;;;;;;7.68;3.50;;;20.70;90.10;;;;;;4951497;28;20047;-85
2021/07/07 12:21:47;;;;;;;10.48;3.50;;;20.60;90.00;;;;;;4938666;28;20046;-86
2021/07/07 12:24:38;;;;;;;9.00;3.95;;;20.40;90.70;;;;;;4964554;28;20042;-89
2021/07/07 12:27:11;;;;;;;6.80;4.32;;;20.20;91.20;;;;;;4948968;28;20401;-90
2021/07/07 12:29:39;;;;;;;7.90;4.93;;;20.00;91.80;;;;;;4973449;28;20438;-89
2021/07/07 12:32:12;;;;;;;8.60;4.30;;;19.80;92.60;;;;;;4970411;28;20034;-91
2021/07/07 12:34:42;;;;;;;7.65;4.82;;;19.70;93.20;;;;;;4973980;28;20473;-87
2021/07/07 12:37:12;;;;;;;;;;;19.60;93.30;;;;;;4991992;28;20113;-89
2021/07/07 12:39:46;;;;;;;9.18;4.68;;;19.60;93.10;;;;;;4984703;28;19929;-87
2021/07/07 12:42:20;;;;;;;8.73;4.38;;;19.50;93.50;;;;;;4983050;28;20061;-88
2021/07/07 12:44:49;;;;;;;7.68;4.18;;;19.50;93.80;;;;;;4972415;28;20078;-86
2021/07/07 12:47:16;;;;;;;7.15;4.32;;;19.40;93.40;;;;;;4935311;28;20047;-86
2021/07/07 12:49:46;;;;;;;8.38;4.65;;;19.40;93.50;;;;;;4924855;28;20053;-87
2021/07/07 12:52:29;;;;;;;8.02;4.38;;;19.30;93.70;;;;;;4985882;28;20050;-86
2021/07/07 12:55:06;;;;;;;9.63;4.68;;;19.30;93.80;;;;;;4964455;28;20391;-87
2021/07/07 12:57:41;;;;;;;8.02;4.07;;;19.20;93.80;;;;;;4986194;28;20045;-85